createdAt,value
2017-10-26T00:02:45.150Z,11.50
2017-10-26T00:07:49.284Z,10.43
2017-10-26T00:12:51.915Z,11.50
2017-10-26T00:17:54.799Z,11.57
2017-10-26T00:22:57.402Z,10.97
2017-10-26T00:28:00.727Z,11.60
2017-10-26T00:33:03.492Z,12.20
2017-10-26T00:38:07.109Z,12.50
2017-10-26T00:43:10.498Z,13.50
2017-10-26T00:48:13.271Z,14.63
2017-10-26T00:53:16.072Z,14.17
2017-10-26T00:58:19.155Z,15.87
2017-10-26T01:03:22.549Z,15.13
2017-10-26T01:08:25.276Z,15.13
2017-10-26T01:13:27.909Z,15.90
2017-10-26T01:18:30.837Z,15.57
2017-10-26T01:23:33.644Z,15.13
2017-10-26T01:28:36.531Z,16.23
2017-10-26T01:33:39.254Z,15.57
2017-10-26T01:38:41.973Z,14.20
2017-10-26T01:43:45.406Z,14.90
2017-10-26T01:48:49.475Z,14.50
2017-10-26T01:53:52.165Z,15.17
2017-10-26T01:58:55.667Z,14.50
2017-10-26T02:03:58.372Z,15.60
2017-10-26T02:09:01.248Z,15.67
2017-10-26T02:14:04.611Z,16.90
2017-10-26T02:19:07.998Z,17.37
2017-10-26T02:24:10.584Z,17.10
2017-10-26T02:29:26.075Z,18.27
2017-10-26T02:34:28.742Z,18.23
2017-10-26T02:39:31.940Z,19.43
2017-10-26T02:44:34.707Z,19.70
2017-10-26T02:49:37.501Z,19.10
2017-10-26T02:54:41.033Z,18.63
2017-10-26T02:59:43.744Z,19.23
2017-10-26T03:04:46.391Z,19.30
2017-10-26T03:09:49.380Z,19.17
2017-10-26T03:14:52.092Z,20.50
2017-10-26T03:19:55.662Z,21.47
2017-10-26T03:24:58.333Z,22.30
2017-10-26T03:30:01.799Z,22.27
2017-10-26T03:35:04.499Z,22.77
2017-10-26T03:40:07.363Z,22.57
2017-10-26T03:45:10.878Z,22.13
2017-10-26T03:50:14.015Z,21.93
2017-10-26T03:55:16.711Z,22.30
2017-10-26T04:00:19.787Z,20.30
2017-10-26T04:05:23.911Z,20.83
2017-10-26T04:10:27.323Z,19.90
2017-10-26T04:15:30.117Z,21.00
2017-10-26T04:20:33.028Z,20.43
2017-10-26T04:25:35.675Z,20.07
2017-10-26T04:30:38.373Z,19.87
2017-10-26T04:35:41.783Z,19.70
2017-10-26T04:40:46.025Z,20.30
2017-10-26T04:45:49.405Z,18.67
2017-10-26T04:50:52.967Z,18.23
2017-10-26T04:55:56.349Z,16.67
2017-10-26T05:00:59.620Z,16.33
2017-10-26T05:06:02.247Z,15.53
2017-10-26T05:11:05.204Z,15.07
2017-10-26T05:16:08.613Z,14.23
2017-10-26T05:21:12.242Z,15.60
2017-10-26T05:26:14.934Z,14.83
2017-10-26T05:31:18.769Z,15.00
2017-10-26T05:36:22.166Z,15.50
2017-10-26T05:41:25.825Z,16.33
2017-10-26T05:46:28.518Z,17.03
2017-10-26T05:51:31.470Z,16.93
2017-10-26T05:56:34.143Z,16.23
2017-10-26T06:01:37.290Z,16.27
2017-10-26T06:06:39.941Z,17.07
2017-10-26T06:11:42.998Z,18.63
2017-10-26T06:16:45.620Z,18.20
2017-10-26T06:21:49.869Z,18.33
2017-10-26T06:26:53.269Z,19.00
2017-10-26T06:31:57.841Z,18.67
2017-10-26T06:37:01.037Z,18.33
2017-10-26T06:42:05.211Z,19.20
2017-10-26T06:47:09.755Z,17.97
2017-10-26T06:52:13.337Z,17.70
2017-10-26T06:57:16.762Z,17.33
2017-10-26T07:02:20.276Z,19.30
2017-10-26T07:07:22.912Z,17.83
2017-10-26T07:12:26.557Z,18.20
2017-10-26T07:17:29.967Z,16.87
2017-10-26T07:22:33.126Z,17.73
2017-10-26T07:27:36.546Z,18.53
2017-10-26T07:32:39.517Z,16.70
2017-10-26T07:37:42.248Z,17.13
2017-10-26T07:42:46.184Z,15.57
2017-10-26T07:47:49.601Z,15.33
2017-10-26T07:52:54.017Z,15.03
2017-10-26T07:57:56.630Z,14.90
2017-10-26T08:03:00.080Z,15.13
2017-10-26T08:08:02.731Z,14.10
2017-10-26T08:13:05.776Z,14.67
2017-10-26T08:18:08.398Z,15.00
2017-10-26T08:23:11.835Z,15.00
2017-10-26T08:28:14.459Z,14.87
2017-10-26T08:33:18.535Z,15.20
2017-10-26T08:38:21.119Z,14.13
2017-10-26T08:43:24.092Z,13.93
2017-10-26T08:48:26.716Z,15.60
2017-10-26T08:53:30.329Z,14.00
2017-10-26T08:58:33.730Z,13.77
2017-10-26T09:03:36.631Z,13.87
2017-10-26T09:08:39.271Z,14.40
2017-10-26T09:13:42.487Z,13.10
2017-10-26T09:18:45.136Z,10.63
2017-10-26T09:23:48.402Z,10.13
2017-10-26T09:28:51.042Z,9.77
2017-10-26T09:33:53.990Z,7.23
2017-10-26T09:38:56.637Z,7.60
2017-10-26T09:43:59.543Z,7.17
2017-10-26T09:49:02.149Z,7.33
2017-10-26T09:54:05.207Z,5.70
2017-10-26T09:59:07.830Z,4.83
2017-10-26T10:04:11.284Z,5.83
2017-10-26T10:09:16.436Z,5.50
2017-10-26T10:14:19.323Z,5.80
2017-10-26T10:19:21.951Z,6.23
2017-10-26T10:24:25.371Z,7.63
2017-10-26T10:29:27.947Z,5.63
2017-10-26T10:34:31.543Z,6.00
2017-10-26T10:39:34.176Z,5.60
2017-10-26T10:44:37.238Z,5.27
2017-10-26T10:49:39.876Z,5.47
2017-10-26T10:54:42.844Z,5.37
2017-10-26T10:59:50.999Z,5.37
2017-10-26T11:04:54.363Z,4.60
2017-10-26T11:09:57.730Z,4.40
2017-10-26T11:15:01.011Z,4.40
2017-10-26T11:20:03.655Z,4.30
2017-10-26T11:25:06.528Z,11.27
2017-10-26T11:30:09.163Z,4.00
2017-10-26T11:35:12.034Z,4.30
2017-10-26T11:40:14.659Z,5.03
2017-10-26T11:45:17.948Z,5.07
2017-10-26T11:50:20.575Z,4.60
2017-10-26T11:55:23.981Z,5.10
2017-10-26T12:00:26.863Z,4.73
2017-10-26T12:05:30.428Z,5.20
2017-10-26T12:10:33.059Z,6.00
2017-10-26T12:15:36.048Z,6.13
2017-10-26T12:20:39.426Z,5.80
2017-10-26T12:25:42.672Z,20.27
2017-10-26T12:30:45.284Z,5.43
2017-10-26T12:35:49.489Z,5.33
2017-10-26T12:40:52.132Z,5.40
2017-10-26T12:45:55.227Z,5.50
2017-10-26T12:50:58.611Z,5.20
2017-10-26T12:56:01.889Z,4.90
2017-10-26T13:01:04.575Z,5.60
2017-10-26T13:06:07.885Z,6.53
2017-10-26T13:11:10.537Z,6.47
2017-10-26T13:16:14.540Z,8.07
2017-10-26T13:21:17.138Z,8.80
2017-10-26T13:26:20.195Z,7.90
2017-10-26T13:31:23.565Z,8.27
2017-10-26T13:36:26.867Z,10.93
2017-10-26T13:41:29.500Z,9.50
2017-10-26T13:46:32.447Z,9.03
2017-10-26T13:51:35.849Z,9.50
2017-10-26T13:56:40.101Z,9.40
2017-10-26T14:01:42.738Z,10.80
2017-10-26T14:06:45.793Z,10.17
2017-10-26T14:11:48.411Z,9.97
2017-10-26T14:16:51.361Z,10.37
2017-10-26T14:21:54.021Z,11.23
2017-10-26T14:26:57.191Z,10.77
2017-10-26T14:31:59.782Z,11.30
2017-10-26T14:37:03.188Z,11.50
2017-10-26T14:42:05.798Z,11.93
2017-10-26T14:47:09.608Z,11.80
2017-10-26T14:52:12.188Z,13.33
2017-10-26T14:57:15.307Z,12.60
2017-10-26T15:02:18.381Z,12.90
2017-10-26T15:07:21.238Z,12.47
2017-10-26T15:12:23.886Z,12.23
2017-10-26T15:17:27.963Z,10.63
2017-10-26T15:22:30.686Z,11.00
2017-10-26T15:27:33.745Z,11.00
2017-10-26T15:32:36.405Z,11.07
2017-10-26T15:37:40.915Z,11.10
2017-10-26T15:42:43.752Z,11.70
2017-10-26T15:47:46.788Z,11.53
2017-10-26T15:52:49.492Z,12.07
2017-10-26T15:57:52.723Z,13.77
2017-10-26T16:02:55.511Z,13.43
2017-10-26T16:07:58.252Z,14.50
2017-10-26T16:13:01.271Z,13.23
2017-10-26T16:18:04.290Z,15.27
2017-10-26T16:23:07.114Z,14.03
2017-10-26T16:28:11.155Z,14.33
2017-10-26T16:33:13.795Z,14.20
2017-10-26T16:38:18.206Z,13.90
2017-10-26T16:43:20.884Z,13.40
2017-10-26T16:48:24.850Z,14.87
2017-10-26T16:53:28.396Z,13.40
2017-10-26T16:58:32.380Z,13.60
2017-10-26T17:03:35.070Z,13.80
2017-10-26T17:08:38.687Z,12.37
2017-10-26T17:13:41.703Z,12.97
2017-10-26T17:18:45.204Z,13.50
2017-10-26T17:23:48.688Z,13.50
2017-10-26T17:28:53.623Z,13.10
2017-10-26T17:33:56.320Z,12.97
2017-10-26T17:39:02.113Z,13.00
2017-10-26T17:44:05.064Z,12.77
2017-10-26T17:49:09.227Z,14.17
2017-10-26T17:54:11.872Z,13.63
2017-10-26T17:59:15.984Z,12.83
2017-10-26T18:04:18.764Z,13.20
2017-10-26T18:09:21.646Z,14.07
2017-10-26T18:14:24.381Z,13.10
2017-10-26T18:19:33.765Z,12.83
2017-10-26T18:24:39.771Z,12.37
2017-10-26T18:29:43.654Z,12.70
2017-10-26T18:34:46.327Z,12.23
2017-10-26T18:39:49.232Z,21.27
2017-10-26T18:44:51.962Z,12.37
2017-10-26T18:49:54.836Z,13.47
2017-10-26T18:54:57.649Z,12.97
2017-10-26T19:00:01.150Z,13.17
2017-10-26T19:05:03.791Z,13.07
2017-10-26T19:10:06.823Z,14.13
2017-10-26T19:15:09.864Z,14.27
2017-10-26T19:20:14.199Z,14.77
2017-10-26T19:25:17.524Z,14.30
2017-10-26T19:30:22.618Z,13.80
2017-10-26T19:35:25.344Z,13.47
2017-10-26T19:40:28.241Z,13.70
2017-10-26T19:45:30.853Z,14.00
2017-10-26T19:50:34.427Z,13.80
2017-10-26T19:55:37.098Z,14.50
2017-10-26T20:00:40.694Z,17.13
2017-10-26T20:05:43.372Z,15.60
2017-10-26T20:10:46.363Z,15.27
2017-10-26T20:15:48.991Z,16.40
2017-10-26T20:20:52.434Z,15.47
2017-10-26T20:25:55.816Z,16.20
2017-10-26T20:30:59.187Z,14.40
2017-10-26T20:36:01.971Z,15.37
2017-10-26T20:41:06.456Z,14.70
2017-10-26T20:46:09.158Z,14.97
2017-10-26T20:51:17.886Z,15.07
2017-10-26T20:56:26.137Z,14.43
2017-10-26T21:01:34.721Z,13.97
2017-10-26T21:06:37.754Z,13.60
2017-10-26T21:11:46.694Z,13.77
2017-10-26T21:16:49.586Z,54.37
2017-10-26T21:21:53.169Z,14.37
2017-10-26T21:26:55.804Z,14.67
2017-10-26T21:32:02.265Z,14.50
2017-10-26T21:37:05.922Z,14.50
2017-10-26T21:42:08.703Z,15.27
2017-10-26T21:47:12.140Z,15.13
2017-10-26T21:52:15.783Z,14.90
2017-10-26T21:57:18.406Z,15.73
2017-10-26T22:02:21.895Z,14.27
2017-10-26T22:07:24.502Z,13.97
2017-10-26T22:12:27.488Z,15.03
2017-10-26T22:17:30.159Z,14.97
2017-10-26T22:22:34.209Z,13.87
2017-10-26T22:27:37.599Z,14.43
2017-10-26T22:32:40.800Z,13.20
2017-10-26T22:37:43.428Z,13.70
2017-10-26T22:42:47.487Z,13.87
2017-10-26T22:47:50.268Z,12.83
2017-10-26T22:52:54.043Z,13.40
2017-10-26T22:57:56.868Z,13.77
2017-10-26T23:02:59.640Z,12.43
2017-10-26T23:08:02.304Z,12.87
2017-10-26T23:13:05.718Z,13.10
2017-10-26T23:18:08.357Z,14.13
2017-10-26T23:23:11.782Z,13.63
2017-10-26T23:28:14.441Z,13.50
2017-10-26T23:33:17.796Z,14.07
2017-10-26T23:38:20.552Z,14.70
2017-10-26T23:43:23.172Z,15.50
2017-10-26T23:48:25.835Z,15.90
2017-10-26T23:53:29.809Z,17.23
2017-10-26T23:58:32.506Z,16.70
